»·PEaware :: AAL665 KLBB-KLAS

AAL665 :: KLBB-KLAS

FLIGHT INFORMATION

Flight Status: Arrived
Operator:
American Airlines
More flights by this operator :: More flights under this callsign
Pilot: Russell P. (22702)
Aircraft: MCDONNELL-DOUGLAS MD-82
(MD82)
More flights by this aircraft type
Origin: KLBB Lubbock Intl
United States
Destination: KLAS McCarran Intl
United States
More flights between these airports :: More routes between these airports
Route: +CNX PGS TYSSN5
File this flight plan on PilotEdge
Remarks: NONE
Altitude:
(Current/Filed)
36,000ft
Speed:
(Current/Filed)
365kts
Departed: 21-May-19 06:53 PM
Arrived: 21-May-19 09:04 PM
Distance/Time
Traveled:
671nm/2:11
Distance/Time
To Go:
Arrived

Flight Plot

Page will automatically refresh every two minutes.

Flight plan parsing failed; only flown route is shown


Map Options




Map Legend


Flown Route
Filed Route
Departure Airport
Arrival Airport
Navaid (VOR, NDB)
Fix

Horizontal Profiles

Position Reports

Time Latitude Longitude Heading Altitude Ground
Speed
21-May-19 18:39 33.656050 -101.823870 91 3254ft 0kts
21-May-19 18:40 33.656050 -101.823870 91 3254ft 0kts
21-May-19 18:41 33.656050 -101.823870 91 3254ft 0kts
21-May-19 18:42 33.656050 -101.823870 91 3254ft 0kts
21-May-19 18:43 33.656050 -101.823870 91 3254ft 0kts
21-May-19 18:44 33.656050 -101.823870 91 3254ft 0kts
21-May-19 18:45 33.656059 -101.824438 90 3253ft 0kts
21-May-19 18:46 33.656059 -101.824438 90 3253ft 0kts
21-May-19 18:47 33.656059 -101.824438 90 3253ft 0kts
21-May-19 18:48 33.656043 -101.824588 40 3252ft 2kts
21-May-19 18:49 33.655336 -101.826867 181 3249ft 35kts
21-May-19 18:50 33.650861 -101.827706 274 3245ft 0kts
21-May-19 18:51 33.650861 -101.827706 274 3245ft 0kts
21-May-19 18:52 33.657652 -101.828934 1 3249ft 99kts
21-May-19 18:53 33.706141 -101.825475 4 3877ft 222kts
21-May-19 18:54 33.757756 -101.848477 280 5865ft 214kts
21-May-19 18:55 33.745074 -101.917727 253 7764ft 215kts
21-May-19 18:56 33.727708 -101.986781 253 9572ft 217kts
21-May-19 18:57 33.710152 -102.056481 253 11378ft 219kts
21-May-19 18:58 33.711676 -102.131056 279 13254ft 247kts
21-May-19 18:59 33.729337 -102.219452 279 15170ft 298kts
21-May-19 19:00 33.750107 -102.323394 279 17023ft 332kts
21-May-19 19:01 33.771595 -102.432099 279 18803ft 336kts
21-May-19 19:02 33.788220 -102.516290 279 20160ft 339kts
21-May-19 19:03 33.794241 -102.547041 279 20649ft 340kts
21-May-19 19:04 33.794241 -102.547041 279 20649ft 340kts
21-May-19 19:05 33.794241 -102.547041 279 20649ft 340kts
21-May-19 19:06 33.794680 -102.549265 279 20684ft 340kts
21-May-19 19:07 33.796747 -102.559684 279 20849ft 340kts
21-May-19 19:08 33.798115 -102.566580 279 20959ft 341kts
21-May-19 19:09 33.800390 -102.578548 279 21109ft 338kts
21-May-19 19:10 33.822748 -102.691780 278 22913ft 354kts
21-May-19 19:11 33.845176 -102.808147 278 24777ft 359kts
21-May-19 19:12 33.868156 -102.926206 278 26609ft 366kts
21-May-19 19:13 33.891512 -103.046377 278 28433ft 371kts
21-May-19 19:14 33.914843 -103.168059 278 29654ft 372kts
21-May-19 19:15 33.938084 -103.289881 278 30839ft 375kts
21-May-19 19:16 33.961493 -103.413164 278 32008ft 381kts
21-May-19 19:17 33.985101 -103.538565 278 33161ft 383kts
21-May-19 19:18 34.008736 -103.664679 278 34105ft 384kts
21-May-19 19:19 34.032101 -103.790133 278 35143ft 380kts
21-May-19 19:20 34.055036 -103.913972 278 36017ft 377kts
21-May-19 19:21 34.078054 -104.038998 278 36025ft 386kts
21-May-19 19:22 34.101400 -104.166575 278 36012ft 389kts
21-May-19 19:23 34.124723 -104.294844 278 36010ft 389kts
21-May-19 19:24 34.147794 -104.422633 278 36011ft 390kts
21-May-19 19:26 34.170797 -104.550647 278 36012ft 389kts
21-May-19 19:27 34.193692 -104.679235 277 36036ft 389kts
21-May-19 19:28 34.216532 -104.807873 277 36038ft 391kts
21-May-19 19:29 34.239041 -104.936562 277 36038ft 390kts
21-May-19 19:30 34.261616 -105.064669 278 36036ft 387kts
21-May-19 19:31 34.283708 -105.191634 278 36050ft 383kts
21-May-19 19:32 34.305464 -105.317773 278 36081ft 381kts
21-May-19 19:33 34.327034 -105.443432 278 36094ft 380kts
21-May-19 19:34 34.348432 -105.569004 278 36119ft 379kts
21-May-19 19:35 34.370171 -105.694441 279 36152ft 380kts
21-May-19 19:36 34.394404 -105.819620 279 36152ft 382kts
21-May-19 19:37 34.418660 -105.945116 279 36113ft 382kts
21-May-19 19:38 34.442833 -106.071323 279 36071ft 382kts
21-May-19 19:39 34.466955 -106.197596 279 36066ft 382kts
21-May-19 19:40 34.490912 -106.324008 279 36067ft 381kts
21-May-19 19:41 34.514762 -106.450410 279 36061ft 381kts
21-May-19 19:42 34.538362 -106.576479 279 36055ft 381kts
21-May-19 19:43 34.561788 -106.702210 278 36072ft 381kts
21-May-19 19:44 34.585203 -106.828770 278 36073ft 383kts
21-May-19 19:44 34.604724 -106.934705 279 36077ft 383kts
21-May-19 19:46 34.631954 -107.083787 279 36082ft 385kts
21-May-19 19:47 34.655316 -107.212172 279 36083ft 385kts
21-May-19 19:47 34.674603 -107.319030 279 36088ft 385kts
21-May-19 19:49 34.701430 -107.468477 279 36129ft 385kts
21-May-19 19:49 34.711032 -107.522273 279 36142ft 384kts
21-May-19 19:50 34.733706 -107.649816 279 36145ft 385kts
21-May-19 19:51 34.756308 -107.777669 278 36163ft 386kts
21-May-19 19:52 34.778755 -107.905727 278 36162ft 386kts
21-May-19 19:54 34.804783 -108.055044 279 36158ft 387kts
21-May-19 19:54 34.823281 -108.162170 279 36152ft 386kts
21-May-19 19:55 34.845366 -108.290101 279 36149ft 386kts
21-May-19 19:56 34.867215 -108.418180 279 36148ft 385kts
21-May-19 19:57 34.889001 -108.546521 279 36139ft 385kts
21-May-19 19:58 34.909296 -108.666815 278 36131ft 383kts
21-May-19 19:59 34.926905 -108.771860 277 36126ft 382kts
21-May-19 20:00 34.948000 -108.898342 278 36116ft 378kts
21-May-19 20:01 34.968716 -109.023539 277 36111ft 375kts
21-May-19 20:02 34.989131 -109.147814 278 36101ft 370kts
21-May-19 20:03 35.009225 -109.270729 277 36095ft 366kts
21-May-19 20:04 35.028856 -109.392356 277 36093ft 362kts
21-May-19 20:05 35.048335 -109.512985 277 36088ft 359kts
21-May-19 20:06 35.067485 -109.632406 277 36086ft 358kts
21-May-19 20:07 35.086652 -109.753207 277 36118ft 359kts
21-May-19 20:08 35.105652 -109.873168 277 36134ft 359kts
21-May-19 20:09 35.124452 -109.992925 277 36127ft 359kts
21-May-19 20:10 35.143216 -110.113451 277 36092ft 359kts
21-May-19 20:11 35.161842 -110.233818 277 36078ft 359kts
21-May-19 20:12 35.180321 -110.353719 276 36071ft 359kts
21-May-19 20:13 35.198573 -110.473774 277 36087ft 357kts
21-May-19 20:14 35.216675 -110.592941 277 36086ft 355kts
21-May-19 20:15 35.234609 -110.711977 277 36111ft 355kts
21-May-19 20:16 35.252406 -110.831135 277 36105ft 356kts
21-May-19 20:17 35.270194 -110.950825 277 36103ft 356kts
21-May-19 20:18 35.287761 -111.070033 278 36100ft 356kts
21-May-19 20:19 35.305276 -111.189566 278 36101ft 355kts
21-May-19 20:20 35.322621 -111.308940 278 36113ft 355kts
21-May-19 20:21 35.339823 -111.428169 278 36116ft 354kts
21-May-19 20:22 35.356943 -111.547421 278 36113ft 354kts
21-May-19 20:23 35.373808 -111.666376 277 36133ft 354kts
21-May-19 20:24 35.390647 -111.785574 278 36139ft 356kts
21-May-19 20:25 35.407511 -111.905869 278 36136ft 356kts
21-May-19 20:26 35.424225 -112.026134 278 35819ft 361kts
21-May-19 20:27 35.440915 -112.147148 278 35802ft 359kts
21-May-19 20:28 35.457506 -112.268000 278 35799ft 358kts
21-May-19 20:29 35.473930 -112.388684 278 35796ft 358kts
21-May-19 20:30 35.490115 -112.509194 278 35791ft 357kts
21-May-19 20:31 35.506235 -112.629500 278 35789ft 357kts
21-May-19 20:32 35.521981 -112.747655 277 33790ft 322kts
21-May-19 20:33 35.536165 -112.855573 276 31830ft 324kts
21-May-19 20:34 35.550433 -112.964835 277 29820ft 322kts
21-May-19 20:35 35.564502 -113.073177 277 27679ft 319kts
21-May-19 20:36 35.577595 -113.174661 277 25464ft 293kts
21-May-19 20:37 35.591239 -113.281247 277 23806ft 336kts
21-May-19 20:38 35.606264 -113.399142 277 22094ft 355kts
21-May-19 20:39 35.621636 -113.521046 277 20359ft 363kts
21-May-19 20:40 35.638571 -113.641962 278 18586ft 351kts
21-May-19 20:41 35.654820 -113.755954 277 16845ft 325kts
21-May-19 20:42 35.669885 -113.862627 278 15114ft 308kts
21-May-19 20:43 35.684201 -113.964545 277 13388ft 297kts
21-May-19 20:44 35.698086 -114.063767 278 12024ft 284kts
21-May-19 20:45 35.711197 -114.158043 278 12016ft 280kts
21-May-19 20:46 35.724215 -114.252246 278 12009ft 281kts
21-May-19 20:47 35.737289 -114.347470 278 12000ft 281kts
21-May-19 20:48 35.785837 -114.418322 338 11201ft 296kts
21-May-19 20:49 35.858367 -114.447185 339 9968ft 236kts
21-May-19 20:50 35.920551 -114.471321 339 9990ft 237kts
21-May-19 20:51 35.983534 -114.495864 339 9988ft 237kts
21-May-19 20:52 36.040648 -114.532685 312 9406ft 238kts
21-May-19 20:53 36.056855 -114.610036 280 8078ft 227kts
21-May-19 20:54 36.066342 -114.682306 280 7902ft 208kts
21-May-19 20:55 36.070673 -114.755037 277 7077ft 206kts
21-May-19 20:56 36.072844 -114.820106 274 6539ft 166kts
21-May-19 20:57 36.073270 -114.874106 274 5990ft 162kts
21-May-19 20:58 36.073382 -114.929209 274 5162ft 151kts
21-May-19 20:59 36.073490 -114.981830 274 4358ft 150kts
21-May-19 21:00 36.073585 -115.034169 274 3548ft 153kts
21-May-19 21:01 36.073597 -115.087522 275 2693ft 148kts
21-May-19 21:02 36.073644 -115.137708 275 2098ft 142kts
21-May-19 21:03 36.075443 -115.156283 314 2140ft 20kts
21-May-19 21:04 36.077929 -115.158243 359 2143ft 0kts
21-May-19 21:05 36.077959 -115.158244 358 2143ft 2kts
21-May-19 21:06 36.081573 -115.157757 75 2131ft 18kts
21-May-19 21:07 36.083735 -115.154164 74 2112ft 18kts
21-May-19 21:08 36.083984 -115.152204 90 2106ft 0kts

Navigation Log

Ident Type
Flight plan parsing failed, navigation log unavailable